Links & Downloads

Hier präsentieren wir eine Auswahl wichtiger Downloads und interessanter Internetseiten. Wir versuchen, diese Seite immer auf aktuellem Stand zu halten.

Dokumente & Programme

  FluPP, ein kostenloses Flugbuch für Windows, mit dem man seine Flüge (Segelflug, Ultraleicht, Motorsegler, Motorflug...) verwalten kann
 
OLC - Segelflugszene

  Alle Streckenflüge des VfS |   Streckenflüge ab Krefeld |   Landesliga - Tabelle

Wetter


METAR / TAF Düsseldorf

[Quelle: ADDS]
METAR
EDDL 250320Z 24011KT 5000 -RA BR SCT011 BKN014 17/15 Q1012 BECMG BKN020 =
TAF
AMD EDDL 250318Z 2503/2606 20007KT 9999 BKN040 TEMPO 2503/2508 4500 -RA BR BKN012 BECMG 2504/2507 24014KT TEMPO 2509/2516 25015G25KT BECMG 2516/2518 25007KT =
SR / SS: 03:18 / 19:52 UTC ( 2017-06-25)

Luftsportportale

Verbände

Behörden

 
Bundesamt für Naturschutz:
Gebiete mit Vogelvorkommen mit besonderer Luftfahrtrelevanz (Aircraft relevant Bird Area)
1.   Allgemein
2.   Niederrhein

Fliegerärzte

Webshops

Vereinsflieger